sensor_id;sensor_type;location;lat;lon;timestamp;pressure;altitude;pressure_sealevel;temperature;humidity
37778;BME280;23615;51.506;7.678;2022-12-08T00:00:51;99489.78;;;4.25;98.25
37778;BME280;23615;51.506;7.678;2022-12-08T00:03:16;99482.25;;;4.28;98.68
37778;BME280;23615;51.506;7.678;2022-12-08T00:05:46;99479.84;;;4.27;98.65
37778;BME280;23615;51.506;7.678;2022-12-08T00:08:30;99477.31;;;4.12;99.39
37778;BME280;23615;51.506;7.678;2022-12-08T00:11:14;99472.59;;;4.01;99.38
37778;BME280;23615;51.506;7.678;2022-12-08T00:13:40;99473.63;;;4.00;99.27
37778;BME280;23615;51.506;7.678;2022-12-08T00:16:06;99471.22;;;4.11;99.30
37778;BME280;23615;51.506;7.678;2022-12-08T00:18:31;99464.94;;;4.12;98.19
37778;BME280;23615;51.506;7.678;2022-12-08T00:20:57;99466.03;;;4.25;98.54
37778;BME280;23615;51.506;7.678;2022-12-08T00:23:23;99457.03;;;4.19;98.50
37778;BME280;23615;51.506;7.678;2022-12-08T00:25:49;99455.56;;;4.03;98.46
37778;BME280;23615;51.506;7.678;2022-12-08T00:28:15;99451.34;;;4.16;99.30
37778;BME280;23615;51.506;7.678;2022-12-08T00:30:41;99452.38;;;4.21;98.42
37778;BME280;23615;51.506;7.678;2022-12-08T00:33:06;99454.22;;;4.21;98.60
37778;BME280;23615;51.506;7.678;2022-12-08T00:35:32;99450.38;;;4.30;98.37
37778;BME280;23615;51.506;7.678;2022-12-08T00:37:57;99457.38;;;4.44;98.39
37778;BME280;23615;51.506;7.678;2022-12-08T00:40:22;99452.44;;;4.28;98.13
37778;BME280;23615;51.506;7.678;2022-12-08T00:42:48;99449.13;;;4.19;98.79
37778;BME280;23615;51.506;7.678;2022-12-08T00:45:13;99443.28;;;4.24;98.91
37778;BME280;23615;51.506;7.678;2022-12-08T00:47:38;99437.78;;;4.19;98.48
37778;BME280;23615;51.506;7.678;2022-12-08T00:50:04;99443.53;;;4.35;98.35
37778;BME280;23615;51.506;7.678;2022-12-08T00:52:30;99438.81;;;4.31;98.14
37778;BME280;23615;51.506;7.678;2022-12-08T00:54:55;99430.50;;;4.34;97.79
37778;BME280;23615;51.506;7.678;2022-12-08T00:57:21;99440.19;;;4.20;98.38
37778;BME280;23615;51.506;7.678;2022-12-08T00:59:46;99439.88;;;4.36;98.04
37778;BME280;23615;51.506;7.678;2022-12-08T01:02:11;99437.16;;;4.17;98.49
37778;BME280;23615;51.506;7.678;2022-12-08T01:04:37;99426.63;;;4.30;98.84
37778;BME280;23615;51.506;7.678;2022-12-08T01:07:02;99422.56;;;4.27;98.75
37778;BME280;23615;51.506;7.678;2022-12-08T01:09:28;99423.78;;;4.31;98.76
37778;BME280;23615;51.506;7.678;2022-12-08T01:11:53;99410.56;;;4.18;99.03
37778;BME280;23615;51.506;7.678;2022-12-08T01:14:18;99420.34;;;4.31;98.60
37778;BME280;23615;51.506;7.678;2022-12-08T01:16:44;99419.31;;;4.32;99.02
37778;BME280;23615;51.506;7.678;2022-12-08T01:19:11;99425.22;;;4.27;98.22
37778;BME280;23615;51.506;7.678;2022-12-08T01:21:37;99417.50;;;4.32;98.19
37778;BME280;23615;51.506;7.678;2022-12-08T01:24:02;99416.66;;;4.25;97.95
37778;BME280;23615;51.506;7.678;2022-12-08T01:26:28;99419.72;;;4.29;98.47
37778;BME280;23615;51.506;7.678;2022-12-08T01:28:53;99415.47;;;4.28;98.81
37778;BME280;23615;51.506;7.678;2022-12-08T01:31:20;99420.16;;;4.39;98.29
37778;BME280;23615;51.506;7.678;2022-12-08T01:33:46;99427.69;;;4.42;98.01
37778;BME280;23615;51.506;7.678;2022-12-08T01:36:30;99419.13;;;4.27;97.97
37778;BME280;23615;51.506;7.678;2022-12-08T01:38:58;99421.78;;;4.33;97.89
37778;BME280;23615;51.506;7.678;2022-12-08T01:41:26;99423.59;;;4.33;97.42
37778;BME280;23615;51.506;7.678;2022-12-08T01:44:54;99426.25;;;4.33;97.86
37778;BME280;23615;51.506;7.678;2022-12-08T01:46:50;99424.41;;;4.27;97.75
37778;BME280;23615;51.506;7.678;2022-12-08T01:49:21;99418.13;;;4.28;98.21
37778;BME280;23615;51.506;7.678;2022-12-08T01:51:55;99423.59;;;4.26;97.98
37778;BME280;23615;51.506;7.678;2022-12-08T01:54:24;99421.75;;;4.27;98.42
37778;BME280;23615;51.506;7.678;2022-12-08T01:57:09;99417.41;;;4.06;97.55
37778;BME280;23615;51.506;7.678;2022-12-08T01:59:40;99434.06;;;4.13;98.25
37778;BME280;23615;51.506;7.678;2022-12-08T02:02:08;99422.94;;;4.18;98.61
37778;BME280;23615;51.506;7.678;2022-12-08T02:04:34;99418.47;;;4.18;98.58
37778;BME280;23615;51.506;7.678;2022-12-08T02:07:01;99414.41;;;4.16;98.13
37778;BME280;23615;51.506;7.678;2022-12-08T02:09:26;99407.28;;;4.16;98.33
37778;BME280;23615;51.506;7.678;2022-12-08T02:11:54;99402.66;;;4.18;97.92
37778;BME280;23615;51.506;7.678;2022-12-08T02:14:20;99405.69;;;4.22;97.71
37778;BME280;23615;51.506;7.678;2022-12-08T02:17:23;99403.47;;;4.25;97.61
37778;BME280;23615;51.506;7.678;2022-12-08T02:20:36;99408.16;;;4.30;97.35
37778;BME280;23615;51.506;7.678;2022-12-08T02:26:04;99398.31;;;4.10;97.62
37778;BME280;23615;51.506;7.678;2022-12-08T02:36:31;99382.91;;;4.07;97.26
37778;BME280;23615;51.506;7.678;2022-12-08T02:41:52;99369.91;;;4.12;97.54
37778;BME280;23615;51.506;7.678;2022-12-08T02:44:34;99372.38;;;4.21;97.09
37778;BME280;23615;51.506;7.678;2022-12-08T02:47:07;99371.34;;;4.15;97.47
37778;BME280;23615;51.506;7.678;2022-12-08T02:49:34;99383.34;;;4.24;96.72
37778;BME280;23615;51.506;7.678;2022-12-08T02:54:56;99356.88;;;3.98;97.40
37778;BME280;23615;51.506;7.678;2022-12-08T03:00:21;99348.81;;;4.19;96.43
37778;BME280;23615;51.506;7.678;2022-12-08T03:03:08;99348.03;;;4.19;96.65
37778;BME280;23615;51.506;7.678;2022-12-08T03:05:54;99347.78;;;4.07;97.20
37778;BME280;23615;51.506;7.678;2022-12-08T03:08:36;99342.44;;;3.94;97.31
37778;BME280;23615;51.506;7.678;2022-12-08T03:11:12;99339.84;;;4.07;97.33
37778;BME280;23615;51.506;7.678;2022-12-08T03:13:47;99329.31;;;4.13;97.20
37778;BME280;23615;51.506;7.678;2022-12-08T03:16:16;99332.19;;;4.19;96.94
37778;BME280;23615;51.506;7.678;2022-12-08T03:18:50;99319.75;;;4.19;96.36
37778;BME280;23615;51.506;7.678;2022-12-08T03:21:18;99323.22;;;4.13;96.50
37778;BME280;23615;51.506;7.678;2022-12-08T03:23:47;99317.53;;;4.09;97.50
37778;BME280;23615;51.506;7.678;2022-12-08T03:26:38;99316.53;;;4.17;97.43
37778;BME280;23615;51.506;7.678;2022-12-08T03:29:07;99316.34;;;4.25;96.91
37778;BME280;23615;51.506;7.678;2022-12-08T03:31:38;99320.81;;;4.25;97.44
37778;BME280;23615;51.506;7.678;2022-12-08T03:34:06;99314.09;;;4.22;96.95
37778;BME280;23615;51.506;7.678;2022-12-08T03:36:32;99309.44;;;4.37;96.72
37778;BME280;23615;51.506;7.678;2022-12-08T03:38:58;99308.81;;;4.22;97.13
37778;BME280;23615;51.506;7.678;2022-12-08T03:41:23;99305.97;;;4.30;96.49
37778;BME280;23615;51.506;7.678;2022-12-08T03:43:51;99302.53;;;4.23;96.04
37778;BME280;23615;51.506;7.678;2022-12-08T03:46:18;99291.78;;;4.25;96.98
37778;BME280;23615;51.506;7.678;2022-12-08T03:48:44;99295.41;;;4.24;96.83
37778;BME280;23615;51.506;7.678;2022-12-08T03:51:09;99296.22;;;4.18;97.35
37778;BME280;23615;51.506;7.678;2022-12-08T03:53:35;99286.63;;;4.03;97.21
37778;BME280;23615;51.506;7.678;2022-12-08T03:56:13;99278.53;;;4.11;97.33
37778;BME280;23615;51.506;7.678;2022-12-08T03:58:40;99268.59;;;4.13;97.41
37778;BME280;23615;51.506;7.678;2022-12-08T04:01:05;99270.41;;;4.20;97.17
37778;BME280;23615;51.506;7.678;2022-12-08T04:03:33;99268.81;;;4.32;97.05
37778;BME280;23615;51.506;7.678;2022-12-08T04:05:58;99272.28;;;4.26;96.59
37778;BME280;23615;51.506;7.678;2022-12-08T04:08:23;99257.66;;;4.23;97.11
37778;BME280;23615;51.506;7.678;2022-12-08T04:10:48;99258.66;;;4.22;97.96
37778;BME280;23615;51.506;7.678;2022-12-08T04:13:14;99262.31;;;4.21;97.22
37778;BME280;23615;51.506;7.678;2022-12-08T04:15:43;99257.66;;;4.17;97.91
37778;BME280;23615;51.506;7.678;2022-12-08T04:18:09;99256.25;;;4.34;97.40
37778;BME280;23615;51.506;7.678;2022-12-08T04:20:38;99256.44;;;4.26;97.48
37778;BME280;23615;51.506;7.678;2022-12-08T04:23:03;99251.97;;;4.26;97.69
37778;BME280;23615;51.506;7.678;2022-12-08T04:25:28;99254.63;;;4.33;97.50
37778;BME280;23615;51.506;7.678;2022-12-08T04:27:53;99249.91;;;4.22;97.66
37778;BME280;23615;51.506;7.678;2022-12-08T04:30:20;99251.56;;;4.23;98.16
37778;BME280;23615;51.506;7.678;2022-12-08T04:32:45;99252.16;;;4.31;98.26
37778;BME280;23615;51.506;7.678;2022-12-08T04:35:10;99243.66;;;4.36;97.80
37778;BME280;23615;51.506;7.678;2022-12-08T04:37:36;99236.94;;;4.40;97.92
37778;BME280;23615;51.506;7.678;2022-12-08T04:40:01;99243.44;;;4.44;97.62
37778;BME280;23615;51.506;7.678;2022-12-08T04:42:26;99242.22;;;4.40;97.50
37778;BME280;23615;51.506;7.678;2022-12-08T04:44:51;99242.03;;;4.35;98.07
37778;BME280;23615;51.506;7.678;2022-12-08T04:47:17;99240.81;;;4.44;97.53
37778;BME280;23615;51.506;7.678;2022-12-08T04:49:42;99237.94;;;4.32;97.55
37778;BME280;23615;51.506;7.678;2022-12-08T04:52:07;99238.97;;;4.25;97.99
37778;BME280;23615;51.506;7.678;2022-12-08T04:54:33;99231.66;;;4.27;97.95
37778;BME280;23615;51.506;7.678;2022-12-08T04:56:58;99234.69;;;4.24;98.83
37778;BME280;23615;51.506;7.678;2022-12-08T04:59:23;99241.22;;;4.28;98.34
37778;BME280;23615;51.506;7.678;2022-12-08T05:01:49;99235.09;;;4.21;98.88
37778;BME280;23615;51.506;7.678;2022-12-08T05:04:14;99235.72;;;4.36;98.40
37778;BME280;23615;51.506;7.678;2022-12-08T05:06:39;99237.13;;;4.32;97.60
37778;BME280;23615;51.506;7.678;2022-12-08T05:09:04;99230.66;;;4.34;97.94
37778;BME280;23615;51.506;7.678;2022-12-08T05:11:30;99233.88;;;4.17;98.38
37778;BME280;23615;51.506;7.678;2022-12-08T05:13:55;99224.56;;;4.27;98.57
37778;BME280;23615;51.506;7.678;2022-12-08T05:16:20;99219.88;;;4.29;98.45
37778;BME280;23615;51.506;7.678;2022-12-08T05:18:46;99223.75;;;4.27;98.70
37778;BME280;23615;51.506;7.678;2022-12-08T05:21:11;99226.56;;;4.32;98.54
37778;BME280;23615;51.506;7.678;2022-12-08T05:23:36;99231.06;;;4.25;99.33
37778;BME280;23615;51.506;7.678;2022-12-08T05:26:02;99221.50;;;4.24;99.61
37778;BME280;23615;51.506;7.678;2022-12-08T05:28:27;99226.19;;;4.35;99.62
37778;BME280;23615;51.506;7.678;2022-12-08T05:30:53;99216.63;;;4.34;99.42
37778;BME280;23615;51.506;7.678;2022-12-08T05:33:18;99218.47;;;4.33;98.75
37778;BME280;23615;51.506;7.678;2022-12-08T05:35:43;99216.41;;;4.29;99.18
37778;BME280;23615;51.506;7.678;2022-12-08T05:38:09;99206.06;;;4.21;99.21
37778;BME280;23615;51.506;7.678;2022-12-08T05:40:37;99213.19;;;4.27;99.61
37778;BME280;23615;51.506;7.678;2022-12-08T05:43:03;99210.31;;;4.22;100.00
37778;BME280;23615;51.506;7.678;2022-12-08T05:45:28;99208.50;;;4.29;99.18
37778;BME280;23615;51.506;7.678;2022-12-08T05:47:53;99213.97;;;4.07;99.76
37778;BME280;23615;51.506;7.678;2022-12-08T05:50:18;99204.63;;;4.11;99.88
37778;BME280;23615;51.506;7.678;2022-12-08T05:52:44;99201.78;;;4.20;100.00
37778;BME280;23615;51.506;7.678;2022-12-08T05:55:09;99207.28;;;4.11;100.00
37778;BME280;23615;51.506;7.678;2022-12-08T05:57:34;99195.09;;;4.24;100.00
37778;BME280;23615;51.506;7.678;2022-12-08T06:00:00;99187.78;;;4.19;100.00
37778;BME280;23615;51.506;7.678;2022-12-08T06:02:26;99190.41;;;4.12;100.00
37778;BME280;23615;51.506;7.678;2022-12-08T06:04:52;99188.78;;;4.11;100.00
37778;BME280;23615;51.506;7.678;2022-12-08T06:07:17;99189.19;;;4.22;99.47
37778;BME280;23615;51.506;7.678;2022-12-08T06:09:42;99188.19;;;4.23;100.00
37778;BME280;23615;51.506;7.678;2022-12-08T06:12:08;99180.66;;;4.20;99.74
37778;BME280;23615;51.506;7.678;2022-12-08T06:14:37;99180.91;;;4.18;99.34
37778;BME280;23615;51.506;7.678;2022-12-08T06:17:03;99186.16;;;4.11;100.00
37778;BME280;23615;51.506;7.678;2022-12-08T06:19:28;99184.94;;;4.07;100.00
37778;BME280;23615;51.506;7.678;2022-12-08T06:21:54;99183.50;;;4.11;100.00
37778;BME280;23615;51.506;7.678;2022-12-08T06:24:19;99183.31;;;4.00;100.00
37778;BME280;23615;51.506;7.678;2022-12-08T06:26:44;99190.00;;;3.96;100.00
37778;BME280;23615;51.506;7.678;2022-12-08T06:29:11;99182.91;;;3.96;100.00
37778;BME280;23615;51.506;7.678;2022-12-08T06:31:36;99185.97;;;4.06;100.00
37778;BME280;23615;51.506;7.678;2022-12-08T06:34:01;99185.16;;;3.99;100.00
37778;BME280;23615;51.506;7.678;2022-12-08T06:36:27;99183.72;;;4.03;100.00
37778;BME280;23615;51.506;7.678;2022-12-08T06:38:52;99186.19;;;4.18;100.00
37778;BME280;23615;51.506;7.678;2022-12-08T06:41:18;99180.06;;;4.04;100.00
37778;BME280;23615;51.506;7.678;2022-12-08T06:43:44;99181.69;;;4.05;100.00
37778;BME280;23615;51.506;7.678;2022-12-08T06:46:13;99183.53;;;4.05;100.00
37778;BME280;23615;51.506;7.678;2022-12-08T06:48:39;99185.16;;;4.06;100.00
37778;BME280;23615;51.506;7.678;2022-12-08T06:51:08;99177.00;;;4.01;100.00
37778;BME280;23615;51.506;7.678;2022-12-08T06:53:34;99172.13;;;4.11;100.00
37778;BME280;23615;51.506;7.678;2022-12-08T06:55:59;99182.69;;;4.04;100.00
37778;BME280;23615;51.506;7.678;2022-12-08T06:58:25;99181.28;;;3.95;100.00
37778;BME280;23615;51.506;7.678;2022-12-08T07:00:50;99175.59;;;3.98;100.00
37778;BME280;23615;51.506;7.678;2022-12-08T07:03:15;99182.28;;;4.01;100.00
37778;BME280;23615;51.506;7.678;2022-12-08T07:05:41;99184.72;;;3.96;100.00
37778;BME280;23615;51.506;7.678;2022-12-08T07:08:07;99180.88;;;3.98;100.00
37778;BME280;23615;51.506;7.678;2022-12-08T07:10:33;99183.72;;;3.97;100.00
37778;BME280;23615;51.506;7.678;2022-12-08T07:12:58;99186.34;;;3.90;100.00
37778;BME280;23615;51.506;7.678;2022-12-08T07:15:24;99184.13;;;4.00;100.00
37778;BME280;23615;51.506;7.678;2022-12-08T07:17:50;99186.16;;;3.98;100.00
37778;BME280;23615;51.506;7.678;2022-12-08T07:20:15;99187.97;;;3.98;100.00
37778;BME280;23615;51.506;7.678;2022-12-08T07:22:47;99188.78;;;3.98;100.00
37778;BME280;23615;51.506;7.678;2022-12-08T07:25:12;99195.66;;;3.86;100.00
37778;BME280;23615;51.506;7.678;2022-12-08T07:27:37;99201.56;;;3.88;100.00
37778;BME280;23615;51.506;7.678;2022-12-08T07:30:03;99197.25;;;3.67;100.00
37778;BME280;23615;51.506;7.678;2022-12-08T07:32:28;99198.50;;;3.78;100.00
37778;BME280;23615;51.506;7.678;2022-12-08T07:34:54;99194.47;;;3.82;100.00
37778;BME280;23615;51.506;7.678;2022-12-08T07:37:19;99196.06;;;3.70;100.00
37778;BME280;23615;51.506;7.678;2022-12-08T07:39:45;99194.25;;;3.84;100.00
37778;BME280;23615;51.506;7.678;2022-12-08T07:42:10;99201.75;;;3.87;100.00
37778;BME280;23615;51.506;7.678;2022-12-08T07:44:35;99193.22;;;3.71;100.00
37778;BME280;23615;51.506;7.678;2022-12-08T07:47:01;99197.25;;;3.74;100.00
37778;BME280;23615;51.506;7.678;2022-12-08T07:49:26;99200.28;;;3.58;100.00
37778;BME280;23615;51.506;7.678;2022-12-08T07:51:51;99197.63;;;3.58;100.00
37778;BME280;23615;51.506;7.678;2022-12-08T07:54:16;99191.97;;;3.67;100.00
37778;BME280;23615;51.506;7.678;2022-12-08T07:56:42;99197.06;;;3.69;100.00
37778;BME280;23615;51.506;7.678;2022-12-08T07:59:07;99197.88;;;3.76;100.00
37778;BME280;23615;51.506;7.678;2022-12-08T08:01:33;99191.78;;;3.69;100.00
37778;BME280;23615;51.506;7.678;2022-12-08T08:04:00;99199.31;;;3.72;100.00
37778;BME280;23615;51.506;7.678;2022-12-08T08:06:26;99193.03;;;3.73;100.00
37778;BME280;23615;51.506;7.678;2022-12-08T08:08:51;99196.88;;;3.70;100.00
37778;BME280;23615;51.506;7.678;2022-12-08T08:11:17;99193.59;;;3.68;100.00
37778;BME280;23615;51.506;7.678;2022-12-08T08:13:42;99188.56;;;3.80;100.00
37778;BME280;23615;51.506;7.678;2022-12-08T08:16:09;99188.94;;;3.64;100.00
37778;BME280;23615;51.506;7.678;2022-12-08T08:18:35;99187.31;;;3.69;100.00
37778;BME280;23615;51.506;7.678;2022-12-08T08:21:02;99186.31;;;3.64;100.00
37778;BME280;23615;51.506;7.678;2022-12-08T08:23:28;99191.59;;;3.64;100.00
37778;BME280;23615;51.506;7.678;2022-12-08T08:25:53;99200.31;;;3.71;100.00
37778;BME280;23615;51.506;7.678;2022-12-08T08:28:19;99212.91;;;3.75;100.00
37778;BME280;23615;51.506;7.678;2022-12-08T08:30:45;99194.84;;;3.79;100.00
37778;BME280;23615;51.506;7.678;2022-12-08T08:33:11;99197.50;;;3.79;100.00
37778;BME280;23615;51.506;7.678;2022-12-08T08:35:37;99194.84;;;3.79;100.00
37778;BME280;23615;51.506;7.678;2022-12-08T08:38:02;99195.63;;;3.66;100.00
37778;BME280;23615;51.506;7.678;2022-12-08T08:40:27;99201.56;;;3.88;100.00
37778;BME280;23615;51.506;7.678;2022-12-08T08:42:53;99190.41;;;3.93;100.00
37778;BME280;23615;51.506;7.678;2022-12-08T08:45:18;99197.50;;;3.86;100.00
37778;BME280;23615;51.506;7.678;2022-12-08T08:47:43;99196.28;;;3.95;100.00
37778;BME280;23615;51.506;7.678;2022-12-08T08:50:09;99199.53;;;3.97;100.00
37778;BME280;23615;51.506;7.678;2022-12-08T08:52:34;99203.00;;;3.91;100.00
37778;BME280;23615;51.506;7.678;2022-12-08T08:55:00;99200.56;;;4.02;100.00
37778;BME280;23615;51.506;7.678;2022-12-08T08:57:25;99204.03;;;4.09;100.00
37778;BME280;23615;51.506;7.678;2022-12-08T08:59:50;99214.19;;;3.99;100.00
37778;BME280;23615;51.506;7.678;2022-12-08T09:02:17;99211.94;;;4.03;99.95
37778;BME280;23615;51.506;7.678;2022-12-08T09:04:43;99219.22;;;3.94;100.00
37778;BME280;23615;51.506;7.678;2022-12-08T09:07:09;99211.72;;;3.91;100.00
37778;BME280;23615;51.506;7.678;2022-12-08T09:09:34;99211.13;;;3.96;100.00
37778;BME280;23615;51.506;7.678;2022-12-08T09:11:59;99208.66;;;3.94;100.00
37778;BME280;23615;51.506;7.678;2022-12-08T09:14:25;99209.69;;;3.87;100.00
37778;BME280;23615;51.506;7.678;2022-12-08T09:16:50;99199.31;;;3.85;100.00
37778;BME280;23615;51.506;7.678;2022-12-08T09:19:15;99203.19;;;3.96;100.00
37778;BME280;23615;51.506;7.678;2022-12-08T09:21:40;99206.41;;;3.78;100.00
37778;BME280;23615;51.506;7.678;2022-12-08T09:24:06;99202.34;;;3.69;100.00
37778;BME280;23615;51.506;7.678;2022-12-08T09:26:32;99205.78;;;3.76;100.00
37778;BME280;23615;51.506;7.678;2022-12-08T09:28:57;99211.69;;;3.85;100.00
37778;BME280;23615;51.506;7.678;2022-12-08T09:31:23;99212.06;;;3.75;100.00
37778;BME280;23615;51.506;7.678;2022-12-08T09:33:49;99207.22;;;3.72;100.00
37778;BME280;23615;51.506;7.678;2022-12-08T09:36:16;99206.81;;;3.75;100.00
37778;BME280;23615;51.506;7.678;2022-12-08T09:38:42;99202.97;;;3.78;100.00
37778;BME280;23615;51.506;7.678;2022-12-08T09:41:16;99215.56;;;3.82;100.00
37778;BME280;23615;51.506;7.678;2022-12-08T09:44:07;99208.25;;;3.84;100.00
37778;BME280;23615;51.506;7.678;2022-12-08T09:46:40;99216.16;;;3.71;100.00
37778;BME280;23615;51.506;7.678;2022-12-08T09:49:13;99214.31;;;3.71;100.00
37778;BME280;23615;51.506;7.678;2022-12-08T09:51:40;99210.25;;;3.69;100.00
37778;BME280;23615;51.506;7.678;2022-12-08T09:54:20;99213.69;;;3.63;100.00
37778;BME280;23615;51.506;7.678;2022-12-08T09:56:47;99216.53;;;3.61;100.00
37778;BME280;23615;51.506;7.678;2022-12-08T09:59:28;99208.19;;;3.64;100.00
37778;BME280;23615;51.506;7.678;2022-12-08T10:01:54;99205.78;;;3.69;100.00
37778;BME280;23615;51.506;7.678;2022-12-08T10:04:36;99203.53;;;3.66;100.00
37778;BME280;23615;51.506;7.678;2022-12-08T10:12:30;99202.72;;;3.66;100.00
37778;BME280;23615;51.506;7.678;2022-12-08T10:15:00;99198.88;;;3.68;100.00
37778;BME280;23615;51.506;7.678;2022-12-08T10:17:34;99204.97;;;3.69;100.00
37778;BME280;23615;51.506;7.678;2022-12-08T10:20:19;99203.31;;;3.55;100.00
37778;BME280;23615;51.506;7.678;2022-12-08T10:22:49;99204.53;;;3.52;100.00
37778;BME280;23615;51.506;7.678;2022-12-08T10:25:27;99205.16;;;3.61;100.00
37778;BME280;23615;51.506;7.678;2022-12-08T10:27:57;99198.06;;;3.55;100.00
37778;BME280;23615;51.506;7.678;2022-12-08T10:30:22;99203.09;;;3.56;100.00
37778;BME280;23615;51.506;7.678;2022-12-08T10:32:50;99196.25;;;3.62;100.00
37778;BME280;23615;51.506;7.678;2022-12-08T10:35:17;99206.97;;;3.60;100.00
37778;BME280;23615;51.506;7.678;2022-12-08T10:38:00;99200.50;;;3.69;100.00
37778;BME280;23615;51.506;7.678;2022-12-08T10:40:28;99184.88;;;3.61;100.00
37778;BME280;23615;51.506;7.678;2022-12-08T10:42:55;99203.34;;;3.61;100.00
37778;BME280;23615;51.506;7.678;2022-12-08T10:45:37;99191.16;;;3.67;100.00
37778;BME280;23615;51.506;7.678;2022-12-08T10:48:14;99189.97;;;3.76;100.00
37778;BME280;23615;51.506;7.678;2022-12-08T10:50:55;99192.34;;;3.58;100.00
37778;BME280;23615;51.506;7.678;2022-12-08T11:00:57;99184.25;;;3.66;100.00
37778;BME280;23615;51.506;7.678;2022-12-08T11:03:30;99192.41;;;3.71;100.00
37778;BME280;23615;51.506;7.678;2022-12-08T11:05:58;99176.59;;;3.78;100.00
37778;BME280;23615;51.506;7.678;2022-12-08T11:08:28;99188.38;;;3.82;100.00
37778;BME280;23615;51.506;7.678;2022-12-08T11:10:54;99176.34;;;3.66;100.00
37778;BME280;23615;51.506;7.678;2022-12-08T11:13:25;99182.25;;;3.74;100.00
37778;BME280;23615;51.506;7.678;2022-12-08T11:15:52;99178.59;;;3.69;99.95
37778;BME280;23615;51.506;7.678;2022-12-08T11:18:27;99177.78;;;3.62;100.00
37778;BME280;23615;51.506;7.678;2022-12-08T11:21:05;99178.16;;;3.59;100.00
37778;BME280;23615;51.506;7.678;2022-12-08T11:23:34;99174.34;;;3.68;100.00
37778;BME280;23615;51.506;7.678;2022-12-08T11:26:05;99174.53;;;3.66;100.00
37778;BME280;23615;51.506;7.678;2022-12-08T11:28:32;99169.06;;;3.61;100.00
37778;BME280;23615;51.506;7.678;2022-12-08T11:31:09;99162.38;;;3.72;100.00
37778;BME280;23615;51.506;7.678;2022-12-08T11:33:37;99166.03;;;3.71;100.00
37778;BME280;23615;51.506;7.678;2022-12-08T11:36:05;99166.03;;;3.71;100.00
37778;BME280;23615;51.506;7.678;2022-12-08T11:38:32;99164.16;;;3.65;100.00
37778;BME280;23615;51.506;7.678;2022-12-08T11:41:04;99155.84;;;3.55;100.00
37778;BME280;23615;51.506;7.678;2022-12-08T11:43:52;99159.88;;;3.44;100.00
37778;BME280;23615;51.506;7.678;2022-12-08T11:48:53;99167.19;;;3.49;100.00
37778;BME280;23615;51.506;7.678;2022-12-08T11:51:39;99167.19;;;3.49;100.00
37778;BME280;23615;51.506;7.678;2022-12-08T11:54:14;99162.53;;;3.51;100.00
37778;BME280;23615;51.506;7.678;2022-12-08T11:56:53;99156.63;;;3.49;100.00
37778;BME280;23615;51.506;7.678;2022-12-08T11:59:36;99156.63;;;3.42;100.00
37778;BME280;23615;51.506;7.678;2022-12-08T12:02:04;99154.00;;;3.49;100.00
37778;BME280;23615;51.506;7.678;2022-12-08T12:04:37;99162.13;;;3.54;100.00
37778;BME280;23615;51.506;7.678;2022-12-08T12:10:07;99156.19;;;3.38;100.00
37778;BME280;23615;51.506;7.678;2022-12-08T12:15:45;99156.38;;;3.30;100.00
37778;BME280;23615;51.506;7.678;2022-12-08T12:18:24;99162.72;;;3.43;100.00
37778;BME280;23615;51.506;7.678;2022-12-08T12:21:04;99162.31;;;3.46;100.00
37778;BME280;23615;51.506;7.678;2022-12-08T12:26:03;99163.53;;;3.36;100.00
37778;BME280;23615;51.506;7.678;2022-12-08T12:31:29;99154.59;;;3.44;100.00
37778;BME280;23615;51.506;7.678;2022-12-08T12:34:10;99160.25;;;3.34;100.00
37778;BME280;23615;51.506;7.678;2022-12-08T12:36:48;99158.19;;;3.30;100.00
37778;BME280;23615;51.506;7.678;2022-12-08T12:39:14;99147.91;;;3.48;100.00
37778;BME280;23615;51.506;7.678;2022-12-08T12:41:46;99156.81;;;3.41;100.00
37778;BME280;23615;51.506;7.678;2022-12-08T12:46:39;99150.16;;;3.45;100.00
37778;BME280;23615;51.506;7.678;2022-12-08T13:02:23;99156.09;;;3.06;98.97
37778;BME280;23615;51.506;7.678;2022-12-08T13:07:53;99150.22;;;3.10;98.92
37778;BME280;23615;51.506;7.678;2022-12-08T13:13:20;99135.38;;;2.96;98.96
37778;BME280;23615;51.506;7.678;2022-12-08T13:18:22;99147.75;;;3.02;97.95
37778;BME280;23615;51.506;7.678;2022-12-08T13:20:56;99151.97;;;2.90;98.41
37778;BME280;23615;51.506;7.678;2022-12-08T13:23:31;99141.22;;;2.91;98.31
37778;BME280;23615;51.506;7.678;2022-12-08T13:26:18;99141.34;;;2.70;98.20
37778;BME280;23615;51.506;7.678;2022-12-08T13:33:59;99140.06;;;2.59;98.12
37778;BME280;23615;51.506;7.678;2022-12-08T13:36:34;99143.69;;;2.58;98.51
37778;BME280;23615;51.506;7.678;2022-12-08T13:39:03;99146.09;;;2.53;99.01
37778;BME280;23615;51.506;7.678;2022-12-08T13:41:36;99141.19;;;2.44;99.16
37778;BME280;23615;51.506;7.678;2022-12-08T13:44:14;99140.66;;;2.55;99.98
37778;BME280;23615;51.506;7.678;2022-12-08T13:46:49;99136.78;;;2.57;99.07
37778;BME280;23615;51.506;7.678;2022-12-08T13:49:17;99141.25;;;2.57;98.51
37778;BME280;23615;51.506;7.678;2022-12-08T13:51:47;99134.97;;;2.58;98.21
37778;BME280;23615;51.506;7.678;2022-12-08T13:54:24;99141.06;;;2.58;98.30
37778;BME280;23615;51.506;7.678;2022-12-08T13:56:51;99135.94;;;2.50;98.37
37778;BME280;23615;51.506;7.678;2022-12-08T13:59:26;99132.81;;;2.34;99.08
37778;BME280;23615;51.506;7.678;2022-12-08T14:01:58;99135.19;;;2.29;99.62
37778;BME280;23615;51.506;7.678;2022-12-08T14:04:25;99147.41;;;2.36;100.00
37778;BME280;23615;51.506;7.678;2022-12-08T14:06:55;99139.97;;;2.46;100.00
37778;BME280;23615;51.506;7.678;2022-12-08T14:09:23;99142.41;;;2.48;100.00
37778;BME280;23615;51.506;7.678;2022-12-08T14:14:19;99131.66;;;2.43;100.00
37778;BME280;23615;51.506;7.678;2022-12-08T14:16:55;99133.75;;;2.54;100.00
37778;BME280;23615;51.506;7.678;2022-12-08T14:19:23;99136.53;;;2.46;99.90
37778;BME280;23615;51.506;7.678;2022-12-08T14:22:08;99138.97;;;2.47;100.00
37778;BME280;23615;51.506;7.678;2022-12-08T14:24:35;99134.91;;;2.45;99.74
37778;BME280;23615;51.506;7.678;2022-12-08T14:27:02;99130.53;;;2.58;99.64
37778;BME280;23615;51.506;7.678;2022-12-08T14:29:38;99138.25;;;2.60;99.83
37778;BME280;23615;51.506;7.678;2022-12-08T14:32:32;99132.16;;;2.59;99.56